Prefeito Renato Moreira Airport

SBIZ · Maranhão, Brésil

METAR anciennes SBIZ · Prefeito Renato Moreira Airport

Tu vois ci-dessous les METAR des derniers jours. Sélectionne une année pour parcourir les METAR plus anciens, à partir de l'année 2007.

23 avril 2024

Temps Code Temps Temp. Vue Base cloud Vent METAR/SPECI
04:00
V
25 °C 10 km+ - 050° 050° 1 kt METAR SBIZ 230700Z 05001KT CAVOK 25/24 Q1011
03:00
V
25 °C 10 km+ 7.000 ft 090° 090° 2 kt METAR SBIZ 230600Z 09002KT 9999 FEW025 BKN070 25/24 Q1011
02:00
V
25 °C 10 km+ 7.000 ft 080° 080° 4 kt METAR SBIZ 230500Z 08004KT 9999 -RA SCT025 BKN070 25/25 Q1011
01:00
V
24 °C 10 km+ - 120° 120° 5 kt METAR SBIZ 230400Z 12005KT CAVOK 24/24 Q1012

22 avril 2024

Temps Code Temps Temp. Vue Base cloud Vent METAR/SPECI
18:00
V
31 °C 10 km+ - 300° 300° 3 kt METAR SBIZ 222100Z 30003KT 9999 FEW040 31/24 Q1009
17:00
V
32 °C 10 km+ - 270° 270° 3 kt METAR SBIZ 222000Z 27003KT 9999 FEW040 32/24 Q1008
16:00
V
33 °C 10 km+ - 300° 300° 6 kt METAR SBIZ 221900Z 30006KT 9999 FEW040 33/24 Q1008
15:00
V
33 °C 10 km+ - 050° 050° 5 kt METAR SBIZ 221800Z 05005KT 9999 FEW040 33/24 Q1008
14:00
V
32 °C 10 km+ - 330° 330° 4 kt METAR SBIZ 221700Z 33004KT 9999 FEW035 32/23 Q1009
13:00
V
31 °C 10 km+ - 360° 360° 5 kt METAR SBIZ 221600Z 36005KT 9999 SCT030 31/24 Q1010
12:00
M
30 °C 10 km+ 3.000 ft 040° 040° 4 kt METAR SBIZ 221500Z 04004KT 9999 BKN030 30/24 Q1012
11:00
M
29 °C 10 km+ 2.000 ft 020° 020° 2 kt METAR SBIZ 221400Z 02002KT 9999 BKN020 29/25 Q1013
10:00
M
28 °C 10 km+ 1.500 ft 030° 030° 3 kt METAR SBIZ 221300Z 03003KT 9999 BKN015 28/24 Q1013
09:00
M
27 °C 10 km+ 2.000 ft 300° 300° 3 kt METAR SBIZ 221200Z 30003KT 9999 BKN020 27/24 Q1013
08:00
V
26 °C 10 km+ - 360° 360° 0 kt METAR SBIZ 221100Z 00000KT 9999 SCT010 26/24 Q1012
07:00
V
25 °C 10 km+ - 350° 350° 2 kt METAR SBIZ 221000Z 35002KT 9999 SCT005 25/24 Q1012
06:00
V
25 °C 10 km+ - 330° 330° 3 kt METAR SBIZ 220900Z 33003KT 9999 FEW006 SCT013 25/24 Q1011
05:00
V
24 °C 10 km+ - 360° 360° 0 kt METAR SBIZ 220800Z 00000KT 9999 SCT011 SCT070 24/24 Q1011
04:00
V
24 °C 10 km+ - 090° 090° 3 kt METAR SBIZ 220700Z 09003KT 9999 FEW006 SCT011 24/24 Q1011
03:00
V
25 °C 10 km+ - 110° 110° 2 kt METAR SBIZ 220600Z 11002KT CAVOK 25/24 Q1011
02:00
V
25 °C 10 km+ - 030° 030° 2 kt METAR SBIZ 220500Z 03002KT CAVOK 25/24 Q1011
01:00
V
25 °C 10 km+ - 320° 320° 2 kt METAR SBIZ 220400Z 32002KT CAVOK 25/24 Q1012

21 avril 2024

Temps Code Temps Temp. Vue Base cloud Vent METAR/SPECI
17:00
V
27 °C 10 km+ - 200° 200° 8 kt METAR SBIZ 212000Z 20008KT 9999 FEW025TCU SCT030 27/23 Q1009
16:00
V
32 °C 10 km+ - 100° 100° 5 kt METAR SBIZ 211900Z 10005KT 9999 SCT030 32/23 Q1008
15:00
M
32 °C 10 km+ 3.000 ft 100° 100° 5 kt METAR SBIZ 211800Z 10005KT 9999 BKN030 32/24 Q1008
14:00
M
31 °C 10 km+ 2.500 ft 150° 150° 5 kt METAR SBIZ 211700Z 15005KT 9999 BKN025 31/25 Q1009
13:00
M
32 °C 10 km+ 2.500 ft 120° 120° 8 kt METAR SBIZ 211600Z 12008KT 9999 BKN025 32/25 Q1011
12:00
V
31 °C 10 km+ - 120° 120° 6 kt METAR SBIZ 211500Z 12006KT 9999 SCT023 31/25 Q1012
11:00
V
30 °C 10 km+ - 070° 070° 2 kt METAR SBIZ 211400Z 07002KT 9999 SCT021 30/24 Q1013
10:00
M
28 °C 10 km+ 1.800 ft 080° 080° 5 kt METAR SBIZ 211300Z 08005KT 9999 BKN018 28/24 Q1014
09:00
M
27 °C 10 km+ 2.000 ft 110° 110° 4 kt METAR SBIZ 211200Z 11004KT 9999 BKN020 BKN100 27/24 Q1013
08:00
V
26 °C 10 km+ - 240° 240° 2 kt METAR SBIZ 211100Z 24002KT 9999 SCT021 26/24 Q1012
07:00
V
25 °C 10 km+ - 230° 230° 3 kt METAR SBIZ 211000Z 23003KT 9999 FEW011 SCT018 25/23 Q1012
06:00
M
24 °C 8 km 1.000 ft 190° 190° 2 kt METAR SBIZ 210900Z 19002KT 8000 BKN010 SCT070 24/24 Q1011
05:00
V
24 °C 10 km+ - 360° 360° 0 kt METAR SBIZ 210800Z 00000KT 9999 SCT010 SCT070 24/24 Q1010
04:00
V
25 °C 10 km+ - 190° 190° 3 kt METAR SBIZ 210700Z 19003KT 9999 SCT010 SCT070 25/24 Q1010
03:00
V
25 °C 10 km+ - 200° 200° 2 kt METAR SBIZ 210600Z 20002KT 9999 FEW010 SCT070 25/24 Q1010
Signaler les modifications